createdAt,value
2023-11-14T00:03:51.237Z,97.10
2023-11-14T00:09:03.152Z,97.40
2023-11-14T00:14:01.736Z,97.40
2023-11-14T00:19:13.127Z,97.50
2023-11-14T00:24:11.272Z,97.50
2023-11-14T00:29:23.255Z,97.70
2023-11-14T00:34:21.619Z,97.80
2023-11-14T00:39:33.328Z,97.90
2023-11-14T00:44:31.623Z,98.00
2023-11-14T00:49:43.458Z,98.00
2023-11-14T00:54:41.570Z,98.00
2023-11-14T00:59:53.428Z,97.70
2023-11-14T01:04:51.698Z,97.50
2023-11-14T01:10:03.370Z,97.70
2023-11-14T01:15:01.487Z,97.90
2023-11-14T01:20:13.659Z,98.10
2023-11-14T01:25:11.664Z,98.20
2023-11-14T01:30:27.197Z,98.30
2023-11-14T01:35:25.989Z,98.60
2023-11-14T01:40:42.592Z,99.20
2023-11-14T01:45:41.675Z,99.30
2023-11-14T01:50:53.721Z,99.40
2023-11-14T01:55:52.349Z,99.20
2023-11-14T02:01:04.442Z,99.10
2023-11-14T02:06:02.515Z,99.10
2023-11-14T02:11:14.163Z,99.10
2023-11-14T02:16:12.629Z,99.20
2023-11-14T02:21:24.606Z,99.00
2023-11-14T02:26:23.215Z,99.00
2023-11-14T02:31:35.616Z,99.10
2023-11-14T02:36:33.797Z,99.00
2023-11-14T02:41:44.068Z,99.10
2023-11-14T02:46:42.781Z,99.30
2023-11-14T02:51:54.573Z,99.10
2023-11-14T02:56:53.143Z,99.20
2023-11-14T03:02:05.199Z,99.30
2023-11-14T03:07:03.213Z,99.10
2023-11-14T03:12:15.342Z,99.10
2023-11-14T03:17:14.153Z,99.10
2023-11-14T03:22:26.297Z,99.20
2023-11-14T03:27:24.473Z,99.00
2023-11-14T03:32:36.475Z,99.00
2023-11-14T03:37:34.690Z,98.90
2023-11-14T03:42:46.491Z,98.90
2023-11-14T03:47:44.641Z,98.80
2023-11-14T03:52:56.925Z,99.00
2023-11-14T03:57:55.112Z,98.80
2023-11-14T04:03:07.896Z,98.90
2023-11-14T04:08:06.088Z,99.20
2023-11-14T04:13:17.391Z,99.70
2023-11-14T04:18:15.445Z,99.70
2023-11-14T04:23:27.997Z,99.60
2023-11-14T04:28:26.783Z,99.60
2023-11-14T04:33:38.374Z,99.60
2023-11-14T04:38:36.491Z,99.60
2023-11-14T04:43:48.279Z,99.70
2023-11-14T04:48:47.133Z,99.40
2023-11-14T04:53:59.365Z,99.30
2023-11-14T04:58:58.030Z,99.40
2023-11-14T05:04:09.748Z,99.40
2023-11-14T05:09:08.073Z,99.40
2023-11-14T05:14:20.456Z,99.30
2023-11-14T05:19:19.149Z,99.30
2023-11-14T05:24:31.837Z,99.10
2023-11-14T05:29:30.055Z,99.30
2023-11-14T05:34:42.526Z,99.70
2023-11-14T05:39:41.063Z,99.70
2023-11-14T05:44:53.496Z,99.70
2023-11-14T05:49:52.320Z,99.90
2023-11-14T05:55:04.911Z,99.90
2023-11-14T06:00:03.700Z,99.90
2023-11-14T06:05:16.928Z,99.90
2023-11-14T06:10:15.134Z,99.60
2023-11-14T06:15:30.981Z,99.50
2023-11-14T06:20:29.676Z,99.40
2023-11-14T06:25:42.573Z,99.60
2023-11-14T06:30:40.816Z,99.60
2023-11-14T06:35:53.374Z,99.50
2023-11-14T06:40:51.684Z,99.30
2023-11-14T06:46:03.953Z,99.50
2023-11-14T06:51:02.688Z,99.50
2023-11-14T06:56:15.800Z,99.40
2023-11-14T07:01:14.840Z,99.30
2023-11-14T07:06:26.531Z,99.10
2023-11-14T07:11:24.734Z,98.90
2023-11-14T07:16:37.932Z,98.70
2023-11-14T07:21:36.642Z,98.70
2023-11-14T07:26:49.710Z,98.60
2023-11-14T07:31:48.905Z,98.70
2023-11-14T07:42:06.577Z,98.50
2023-11-14T07:47:15.463Z,98.60
2023-11-14T07:52:17.485Z,98.70
2023-11-14T07:57:15.956Z,98.10
2023-11-14T08:02:27.375Z,97.90
2023-11-14T08:07:25.548Z,98.10
2023-11-14T08:12:38.315Z,97.90
2023-11-14T08:17:38.076Z,97.80
2023-11-14T08:22:50.508Z,98.20
2023-11-14T08:27:49.655Z,98.30
2023-11-14T08:33:02.539Z,97.50
2023-11-14T08:38:09.915Z,97.20
2023-11-14T08:43:13.056Z,97.00
2023-11-14T08:48:12.185Z,97.10
2023-11-14T08:53:26.186Z,96.90
2023-11-14T08:58:24.434Z,96.60
2023-11-14T09:03:36.331Z,96.20
2023-11-14T09:08:34.362Z,96.00
2023-11-14T09:13:47.512Z,95.90
2023-11-14T09:18:45.822Z,95.80
2023-11-14T09:23:57.477Z,96.00
2023-11-14T09:28:56.060Z,96.00
2023-11-14T09:34:08.690Z,95.90
2023-11-14T09:39:09.443Z,96.10
2023-11-14T09:44:18.341Z,96.00
2023-11-14T09:49:16.438Z,96.10
2023-11-14T09:54:28.204Z,96.30
2023-11-14T09:59:26.468Z,96.10
2023-11-14T10:04:38.521Z,95.70
2023-11-14T10:09:36.756Z,95.50
2023-11-14T10:14:48.535Z,95.40
2023-11-14T10:19:47.055Z,95.30
2023-11-14T10:24:59.419Z,95.20
2023-11-14T10:29:58.036Z,95.20
2023-11-14T10:35:09.269Z,95.40
2023-11-14T10:40:07.591Z,95.10
2023-11-14T10:45:19.466Z,95.10
2023-11-14T10:50:18.273Z,95.10
2023-11-14T10:55:30.320Z,95.10
2023-11-14T11:00:28.717Z,95.20
2023-11-14T11:05:40.407Z,94.90
2023-11-14T11:10:39.188Z,94.60
2023-11-14T11:15:51.798Z,94.50
2023-11-14T11:20:50.223Z,94.50
2023-11-14T11:26:02.855Z,94.40
2023-11-14T11:31:01.895Z,94.50
2023-11-14T11:36:13.286Z,94.60
2023-11-14T11:41:14.714Z,94.50
2023-11-14T11:46:22.249Z,94.70
2023-11-14T11:51:20.688Z,94.90
2023-11-14T11:56:32.446Z,94.70
2023-11-14T12:01:31.592Z,94.60
2023-11-14T12:06:44.355Z,94.60
2023-11-14T12:11:42.511Z,94.40
2023-11-14T12:16:54.265Z,94.00
2023-11-14T12:21:52.275Z,94.20
2023-11-14T12:27:04.197Z,94.00
2023-11-14T12:32:02.430Z,94.30
2023-11-14T12:37:14.421Z,94.20
2023-11-14T12:42:12.721Z,93.90
2023-11-14T12:47:25.774Z,94.00
2023-11-14T12:52:24.297Z,93.90
2023-11-14T12:57:36.311Z,94.10
2023-11-14T13:02:35.867Z,94.10
2023-11-14T13:07:45.605Z,94.10
2023-11-14T13:12:44.368Z,94.10
2023-11-14T13:17:56.469Z,94.50
2023-11-14T13:22:54.507Z,94.40
2023-11-14T13:28:06.782Z,95.00
2023-11-14T13:33:05.599Z,94.80
2023-11-14T13:38:18.051Z,94.80
2023-11-14T13:43:16.292Z,94.80
2023-11-14T13:48:28.353Z,95.10
2023-11-14T13:53:26.376Z,95.00
2023-11-14T13:58:38.308Z,95.20
2023-11-14T14:03:37.197Z,95.40
2023-11-14T14:08:49.199Z,95.40
2023-11-14T14:13:47.410Z,95.60
2023-11-14T14:18:59.289Z,95.80
2023-11-14T14:23:57.894Z,95.70
2023-11-14T14:29:09.508Z,95.80
2023-11-14T14:34:09.516Z,95.90
2023-11-14T14:39:19.237Z,96.10
2023-11-14T14:44:17.620Z,96.00
2023-11-14T14:49:29.394Z,96.00
2023-11-14T14:54:27.605Z,96.40
2023-11-14T14:59:39.181Z,96.10
2023-11-14T15:04:37.613Z,96.40
2023-11-14T15:09:49.326Z,96.90
2023-11-14T15:14:47.493Z,97.10
2023-11-14T15:19:59.349Z,98.00
2023-11-14T15:24:57.461Z,97.60
2023-11-14T15:30:09.233Z,97.70
2023-11-14T15:35:07.235Z,97.60
2023-11-14T15:40:19.518Z,97.80
2023-11-14T15:45:17.748Z,97.60
2023-11-14T15:50:29.434Z,97.60
2023-11-14T15:55:27.508Z,97.70
2023-11-14T16:00:39.181Z,97.70
2023-11-14T16:05:37.815Z,97.60
2023-11-14T16:10:51.040Z,97.80
2023-11-14T16:15:49.775Z,97.80
2023-11-14T16:21:03.756Z,97.90
2023-11-14T16:26:02.571Z,98.00
2023-11-14T16:31:15.556Z,98.10
2023-11-14T16:36:14.477Z,98.00
2023-11-14T16:41:28.109Z,98.20
2023-11-14T16:46:30.855Z,98.40
2023-11-14T16:51:33.087Z,98.30
2023-11-14T16:56:32.382Z,98.50
2023-11-14T17:01:44.391Z,98.50
2023-11-14T17:06:43.042Z,98.40
2023-11-14T17:11:55.210Z,98.40
2023-11-14T17:16:53.452Z,98.40
2023-11-14T17:22:05.378Z,98.30
2023-11-14T17:27:03.953Z,98.30
2023-11-14T17:32:15.238Z,98.50
2023-11-14T17:37:14.101Z,98.50
2023-11-14T17:42:28.273Z,98.40
2023-11-14T17:47:28.180Z,98.50
2023-11-14T17:52:41.201Z,98.70
2023-11-14T17:57:41.685Z,98.70
2023-11-14T18:02:45.243Z,98.70
2023-11-14T18:07:44.087Z,98.50
2023-11-14T18:12:57.038Z,98.90
2023-11-14T18:17:56.516Z,98.70
2023-11-14T18:23:09.137Z,98.50
2023-11-14T18:28:08.011Z,98.50
2023-11-14T18:33:20.838Z,98.60
2023-11-14T18:38:20.357Z,98.70
2023-11-14T18:43:33.590Z,98.80
2023-11-14T18:48:32.580Z,98.80
2023-11-14T18:53:45.167Z,98.90
2023-11-14T18:58:43.728Z,98.90
2023-11-14T19:03:56.244Z,99.10
2023-11-14T19:08:54.011Z,99.10
2023-11-14T19:14:06.297Z,99.30
2023-11-14T19:19:04.752Z,99.50
2023-11-14T19:24:16.191Z,99.70
2023-11-14T19:29:14.096Z,99.70
2023-11-14T19:34:26.534Z,99.60
2023-11-14T19:39:27.648Z,99.80
2023-11-14T19:44:29.697Z,99.80
2023-11-14T19:49:30.801Z,99.80
2023-11-14T19:54:39.700Z,99.80
2023-11-14T19:59:37.750Z,99.80
2023-11-14T20:04:49.437Z,99.80
2023-11-14T20:09:47.716Z,99.80
2023-11-14T20:14:59.120Z,99.90
2023-11-14T20:19:57.308Z,99.70
2023-11-14T20:25:09.304Z,99.50
2023-11-14T20:30:07.631Z,99.70
2023-11-14T20:35:19.725Z,99.70
2023-11-14T20:40:17.789Z,99.70
2023-11-14T20:45:29.095Z,99.90
2023-11-14T20:50:27.304Z,99.90
2023-11-14T20:55:39.744Z,99.90
2023-11-14T21:00:37.696Z,99.90
2023-11-14T21:05:49.090Z,99.90
2023-11-14T21:10:47.077Z,99.90
2023-11-14T21:15:59.386Z,99.70
2023-11-14T21:20:58.681Z,99.60
2023-11-14T21:26:10.297Z,99.90
2023-11-14T21:31:08.677Z,99.90
2023-11-14T21:36:20.609Z,99.70
2023-11-14T21:41:19.033Z,99.50
2023-11-14T21:46:30.413Z,99.50
2023-11-14T21:51:29.086Z,99.00
2023-11-14T21:56:41.509Z,99.00
2023-11-14T22:01:39.480Z,99.10
2023-11-14T22:06:51.597Z,99.20
2023-11-14T22:11:50.179Z,99.60
2023-11-14T22:17:02.291Z,99.70
2023-11-14T22:22:00.413Z,99.90
2023-11-14T22:27:12.851Z,99.90
2023-11-14T22:32:11.085Z,99.90
2023-11-14T22:37:23.231Z,99.90
2023-11-14T22:42:21.461Z,99.90
2023-11-14T22:47:33.673Z,99.90
2023-11-14T22:52:32.178Z,99.90
2023-11-14T22:57:44.794Z,99.90
2023-11-14T23:02:43.159Z,99.90
2023-11-14T23:07:55.085Z,99.90
2023-11-14T23:12:53.274Z,99.90
2023-11-14T23:18:05.212Z,99.90
2023-11-14T23:23:03.543Z,99.90
2023-11-14T23:28:15.197Z,99.90
2023-11-14T23:33:13.483Z,99.90
2023-11-14T23:38:25.770Z,99.90
2023-11-14T23:43:23.898Z,99.80
2023-11-14T23:48:35.256Z,99.80
2023-11-14T23:53:33.318Z,99.70
2023-11-14T23:58:45.355Z,99.70
